Time;durP1;ratioP1;P1;durP2;ratioP2;P2;SDS_P1;SDS_P2;PMS_P1;PMS_P2;Temp;Humidity;BMP_temperature;BMP_pressure;BME280_temperature;BME280_humidity;BME280_pressure;Samples;Min_cycle;Max_cycle;Signal;HPM_P1;HPM_P2
2021/03/30 00:01:14;;;;;;;7.57;2.88;;;9.20;88.60;;;;;;5013654;28;20048;-90
2021/03/30 00:03:40;;;;;;;9.80;2.72;;;9.30;89.40;;;;;;5012309;28;20036;-89
2021/03/30 00:06:06;;;;;;;7.45;2.92;;;9.20;89.90;;;;;;5012210;28;20030;-89
2021/03/30 00:08:31;;;;;;;7.72;3.20;;;9.20;89.90;;;;;;5012238;28;20022;-89
2021/03/30 00:10:57;;;;;;;7.00;3.47;;;9.10;88.40;;;;;;5013415;28;20025;-89
2021/03/30 00:13:24;;;;;;;6.88;3.20;;;9.00;90.20;;;;;;5012292;28;20113;-89
2021/03/30 00:15:50;;;;;;;9.20;3.13;;;9.00;90.00;;;;;;5013698;28;20100;-89
2021/03/30 00:18:16;;;;;;;8.00;3.00;;;8.80;89.70;;;;;;5012231;28;20543;-89
2021/03/30 00:20:42;;;;;;;7.13;3.10;;;8.70;90.10;;;;;;5012273;28;20049;-89
2021/03/30 00:23:08;;;;;;;5.80;3.25;;;8.90;90.80;;;;;;5012222;28;20392;-89
2021/03/30 00:25:34;;;;;;;4.03;2.15;;;9.00;90.20;;;;;;5014924;28;20046;-89
2021/03/30 00:28:00;;;;;;;6.15;2.92;;;9.00;90.40;;;;;;5017210;28;20146;-89
2021/03/30 00:30:26;;;;;;;6.10;2.90;;;9.00;90.60;;;;;;5015785;28;20057;-89
2021/03/30 00:32:52;;;;;;;5.07;2.70;;;9.00;90.20;;;;;;5015788;28;20549;-89
2021/03/30 00:35:18;;;;;;;8.35;2.50;;;8.90;90.90;;;;;;5016995;28;20060;-89
2021/03/30 00:37:44;;;;;;;6.05;2.67;;;9.00;90.60;;;;;;5015669;28;20362;-89
2021/03/30 00:40:11;;;;;;;4.32;2.45;;;9.00;90.40;;;;;;5015635;28;20457;-88
2021/03/30 00:42:38;;;;;;;4.13;2.38;;;8.70;91.00;;;;;;5015502;28;20029;-89
2021/03/30 00:45:06;;;;;;;5.75;2.88;;;8.60;91.30;;;;;;5015518;28;20029;-89
2021/03/30 00:47:33;;;;;;;5.03;2.65;;;8.40;91.20;;;;;;5015416;28;20148;-89
2021/03/30 00:49:59;;;;;;;8.38;3.20;;;8.20;91.20;;;;;;5015567;28;20469;-89
2021/03/30 00:52:26;;;;;;;6.97;2.55;;;8.30;91.60;;;;;;5015382;28;20032;-89
2021/03/30 00:54:52;;;;;;;6.15;2.67;;;8.50;92.20;;;;;;5016682;28;20076;-89
2021/03/30 00:57:18;;;;;;;6.30;2.30;;;8.70;92.10;;;;;;5015431;28;20026;-89
2021/03/30 00:59:45;;;;;;;8.20;2.55;;;8.90;91.50;;;;;;5015351;28;20026;-89
2021/03/30 01:02:11;;;;;;;3.15;2.05;;;8.40;90.70;;;;;;5015353;28;20053;-89
2021/03/30 01:04:37;;;;;;;4.15;2.38;;;8.70;91.80;;;;;;5015350;28;20033;-89
2021/03/30 01:07:03;;;;;;;5.00;2.38;;;8.60;91.40;;;;;;5016653;28;20373;-89
2021/03/30 01:09:44;;;;;;;6.05;2.50;;;8.80;92.20;;;;;;5015157;28;20033;-89
2021/03/30 01:12:34;;;;;;;5.95;2.85;;;8.70;91.80;;;;;;5015119;28;20029;-89
2021/03/30 01:15:14;;;;;;;5.85;2.47;;;8.60;90.90;;;;;;5015068;28;20481;-89
2021/03/30 01:17:43;;;;;;;5.10;2.40;;;8.50;92.20;;;;;;5016182;28;20022;-88
2021/03/30 01:21:17;;;;;;;5.00;2.60;;;8.60;91.80;;;;;;5016158;28;20025;-88
2021/03/30 01:23:54;;;;;;;5.60;2.78;;;8.70;92.30;;;;;;4947340;29;20111;-88
2021/03/30 01:26:31;;;;;;;8.02;2.92;;;8.70;91.70;;;;;;4955477;29;20047;-88
2021/03/30 01:29:00;;;;;;;3.20;2.42;;;8.60;91.80;;;;;;5001340;28;20037;-87
2021/03/30 01:31:28;;;;;;;3.58;2.28;;;8.60;91.20;;;;;;5014776;28;20029;-88
2021/03/30 01:33:55;;;;;;;8.23;2.70;;;8.70;91.90;;;;;;5014656;28;20025;-88
2021/03/30 01:36:23;;;;;;;6.00;2.45;;;8.60;91.80;;;;;;5014118;28;20486;-88
2021/03/30 01:38:50;;;;;;;3.83;2.25;;;8.60;91.70;;;;;;5014528;28;20026;-88
2021/03/30 01:41:16;;;;;;;4.50;2.38;;;8.80;92.50;;;;;;5015362;28;20049;-88
2021/03/30 01:43:46;;;;;;;5.05;2.53;;;8.70;91.50;;;;;;5015668;28;20105;-89
2021/03/30 01:46:14;;;;;;;4.70;2.40;;;8.60;92.00;;;;;;5014391;28;20481;-88
2021/03/30 01:48:42;;;;;;;4.97;2.78;;;8.40;91.70;;;;;;5014306;28;20052;-88
2021/03/30 01:51:10;;;;;;;5.05;2.78;;;8.30;91.90;;;;;;5014303;28;20036;-89
2021/03/30 01:53:37;;;;;;;4.20;2.03;;;8.50;92.40;;;;;;5015513;28;20577;-89
2021/03/30 01:56:05;;;;;;;4.35;2.28;;;8.50;92.20;;;;;;5014143;28;20040;-88
2021/03/30 01:58:32;;;;;;;4.90;1.95;;;8.50;92.30;;;;;;5014169;28;20026;-88
2021/03/30 02:00:59;;;;;;;3.45;2.28;;;8.50;92.40;;;;;;5014094;28;20030;-88
2021/03/30 02:03:27;;;;;;;5.18;2.38;;;8.60;92.40;;;;;;5013977;28;20030;-89
2021/03/30 02:05:57;;;;;;;4.47;2.30;;;8.40;92.00;;;;;;5013979;28;20525;-88
2021/03/30 02:08:27;;;;;;;5.13;2.20;;;8.40;92.30;;;;;;5014007;28;20080;-88
2021/03/30 02:10:54;;;;;;;4.65;2.25;;;8.30;93.00;;;;;;5014017;28;20389;-88
2021/03/30 02:13:31;;;;;;;6.65;2.50;;;8.30;92.60;;;;;;5013852;28;20026;-88
2021/03/30 02:16:34;;;;;;;8.65;2.50;;;8.40;91.60;;;;;;5013813;28;20026;-88
2021/03/30 02:19:15;;;;;;;5.40;2.60;;;8.00;92.60;;;;;;5009863;28;20045;-88
2021/03/30 02:22:00;;;;;;;5.28;2.22;;;7.90;92.90;;;;;;5013786;28;20112;-88
2021/03/30 02:24:29;;;;;;;5.95;2.30;;;8.00;92.60;;;;;;5013450;28;20033;-89
2021/03/30 02:26:57;;;;;;;4.63;2.28;;;8.10;93.10;;;;;;5013611;28;20038;-88
2021/03/30 02:29:27;;;;;;;6.70;2.58;;;8.00;92.30;;;;;;5013611;28;20163;-88
2021/03/30 02:31:54;;;;;;;5.72;2.55;;;8.10;93.00;;;;;;5013508;28;20378;-88
2021/03/30 02:34:26;;;;;;;3.75;2.60;;;8.00;93.10;;;;;;5013487;28;20105;-88
2021/03/30 02:36:55;;;;;;;4.25;2.25;;;8.10;92.90;;;;;;5013578;28;20367;-88
2021/03/30 02:39:21;;;;;;;4.25;2.00;;;8.10;92.70;;;;;;5013401;28;20022;-88
2021/03/30 02:41:48;;;;;;;5.95;2.22;;;8.00;93.50;;;;;;5014702;28;20033;-88
2021/03/30 02:44:17;;;;;;;3.53;2.40;;;8.20;93.00;;;;;;5014676;28;20389;-88
2021/03/30 02:46:43;;;;;;;5.55;2.13;;;8.50;93.50;;;;;;5013654;28;20026;-88
2021/03/30 02:49:13;;;;;;;8.18;2.35;;;8.50;92.60;;;;;;5013809;28;20521;-88
2021/03/30 02:51:41;;;;;;;4.78;2.67;;;8.20;92.30;;;;;;5013224;28;20022;-88
2021/03/30 02:54:09;;;;;;;4.18;2.40;;;7.70;92.90;;;;;;5013196;28;20028;-89
2021/03/30 02:56:36;;;;;;;6.70;2.70;;;7.70;92.80;;;;;;5014504;28;20473;-88
2021/03/30 02:59:02;;;;;;;4.65;2.35;;;7.70;93.80;;;;;;5013082;28;20061;-88
2021/03/30 03:01:30;;;;;;;6.68;2.17;;;8.00;93.60;;;;;;5013052;28;20053;-88
2021/03/30 03:03:56;;;;;;;4.53;2.50;;;8.30;93.40;;;;;;5013488;28;20103;-87
2021/03/30 03:06:22;;;;;;;18.55;6.18;;;8.00;92.70;;;;;;5014076;28;20029;-87
2021/03/30 03:08:51;;;;;;;15.10;5.35;;;7.80;92.90;;;;;;5012928;28;20390;-87
2021/03/30 03:11:17;;;;;;;6.05;2.80;;;8.10;93.80;;;;;;5014055;28;20076;-88
2021/03/30 03:13:45;;;;;;;6.70;2.50;;;8.30;93.00;;;;;;5012859;28;20022;-87
2021/03/30 03:16:12;;;;;;;7.22;3.17;;;8.20;92.50;;;;;;5013973;28;20036;-87
2021/03/30 03:18:42;;;;;;;8.43;3.42;;;8.10;93.50;;;;;;5012695;28;20153;-87
2021/03/30 03:21:09;;;;;;;7.78;3.33;;;8.20;93.30;;;;;;5012683;28;20437;-87
2021/03/30 03:23:38;;;;;;;6.50;2.70;;;8.20;93.40;;;;;;5012632;28;20026;-87
2021/03/30 03:26:07;;;;;;;8.73;2.83;;;8.20;92.80;;;;;;5012445;28;20493;-87
2021/03/30 03:28:38;;;;;;;4.97;2.88;;;7.70;93.50;;;;;;5012599;28;20018;-87
2021/03/30 03:31:03;;;;;;;6.43;2.88;;;7.90;93.60;;;;;;5012716;28;20029;-88
2021/03/30 03:33:30;;;;;;;7.07;2.83;;;7.70;94.40;;;;;;5012637;28;20113;-87
2021/03/30 03:36:09;;;;;;;6.65;2.72;;;7.90;93.30;;;;;;5012573;28;20030;-87
2021/03/30 03:38:36;;;;;;;5.50;2.85;;;7.60;94.10;;;;;;5012500;28;20026;-88
2021/03/30 03:41:03;;;;;;;6.55;2.75;;;7.20;94.10;;;;;;5012563;28;20025;-88
2021/03/30 03:43:29;;;;;;;6.50;2.97;;;7.40;94.10;;;;;;5013728;28;20041;-88
2021/03/30 03:45:54;;;;;;;5.60;2.78;;;7.30;94.10;;;;;;5012378;28;20030;-87
2021/03/30 03:48:20;;;;;;;7.53;2.65;;;7.40;94.40;;;;;;5012409;28;20026;-86
2021/03/30 03:50:47;;;;;;;5.47;2.65;;;7.70;94.50;;;;;;5012393;28;20022;-87
2021/03/30 03:53:14;;;;;;;5.95;2.83;;;7.40;93.50;;;;;;5012454;28;20022;-87
2021/03/30 03:55:47;;;;;;;4.72;2.63;;;7.50;94.40;;;;;;5012341;28;20061;-88
2021/03/30 03:58:15;;;;;;;6.85;2.70;;;7.60;94.20;;;;;;5013634;28;20085;-87
2021/03/30 04:00:41;;;;;;;6.43;2.45;;;7.60;94.90;;;;;;5016365;28;20033;-87
2021/03/30 04:03:13;;;;;;;5.68;2.80;;;7.50;94.50;;;;;;5016324;28;20116;-88
2021/03/30 04:05:47;;;;;;;4.60;2.75;;;7.40;94.00;;;;;;5017520;28;20119;-87
2021/03/30 04:08:15;;;;;;;5.32;2.78;;;7.40;94.80;;;;;;5016249;28;20489;-87
2021/03/30 04:10:48;;;;;;;4.43;2.55;;;7.50;95.00;;;;;;5017393;28;20026;-87
2021/03/30 04:13:20;;;;;;;5.10;2.33;;;7.50;94.10;;;;;;5016187;28;20026;-87
2021/03/30 04:15:46;;;;;;;6.80;2.55;;;7.50;94.60;;;;;;5017543;28;20026;-87
2021/03/30 04:18:12;;;;;;;6.38;2.40;;;7.50;94.90;;;;;;5017271;28;20034;-87
2021/03/30 04:20:38;;;;;;;5.38;2.78;;;7.60;95.00;;;;;;5015917;28;20436;-87
2021/03/30 04:23:04;;;;;;;5.72;2.65;;;7.60;94.10;;;;;;5015968;28;20064;-87
2021/03/30 04:25:30;;;;;;;4.28;2.75;;;7.50;94.40;;;;;;5015620;28;20058;-87
2021/03/30 04:27:56;;;;;;;16.65;2.97;;;7.70;94.30;;;;;;5015792;28;20030;-87
2021/03/30 04:30:22;;;;;;;9.10;2.78;;;7.60;94.60;;;;;;5015778;28;20476;-87
2021/03/30 04:32:48;;;;;;;8.10;2.85;;;7.70;94.90;;;;;;5015858;28;20022;-88
2021/03/30 04:35:14;;;;;;;8.02;3.10;;;7.60;94.60;;;;;;5015661;28;20493;-87
2021/03/30 04:37:41;;;;;;;7.10;3.03;;;7.40;94.20;;;;;;5016919;28;20136;-88
2021/03/30 04:40:09;;;;;;;9.25;3.35;;;7.30;95.50;;;;;;5015692;28;20079;-87
2021/03/30 04:42:34;;;;;;;10.27;3.58;;;7.10;95.00;;;;;;5015817;28;20022;-88
2021/03/30 04:45:00;;;;;;;7.25;3.33;;;7.00;95.10;;;;;;5015480;28;20474;-87
2021/03/30 04:47:26;;;;;;;7.60;3.15;;;7.00;95.50;;;;;;5016646;28;20225;-88
2021/03/30 04:49:52;;;;;;;6.15;3.00;;;7.00;96.00;;;;;;5015740;28;20473;-89
2021/03/30 04:52:19;;;;;;;6.50;3.05;;;7.20;95.50;;;;;;5015548;28;20052;-89
2021/03/30 04:54:44;;;;;;;5.28;2.80;;;7.10;95.40;;;;;;5016711;28;20033;-89
2021/03/30 04:57:10;;;;;;;7.68;3.10;;;7.30;95.90;;;;;;5015621;28;20125;-89
2021/03/30 04:59:36;;;;;;;4.80;2.90;;;7.30;95.10;;;;;;5015412;28;20021;-89
2021/03/30 05:02:02;;;;;;;5.63;2.38;;;7.40;95.40;;;;;;5015762;28;20060;-89
2021/03/30 05:04:27;;;;;;;6.70;2.70;;;7.50;94.40;;;;;;5015591;28;20049;-89
2021/03/30 05:06:53;;;;;;;6.65;3.20;;;7.50;95.40;;;;;;5015944;28;20465;-89
2021/03/30 05:09:19;;;;;;;5.35;2.72;;;7.50;94.70;;;;;;5014812;28;20025;-89
2021/03/30 05:11:45;;;;;;;13.32;2.85;;;7.40;95.30;;;;;;5015206;28;20524;-89
2021/03/30 05:14:10;;;;;;;8.27;2.75;;;7.10;94.90;;;;;;5015168;28;20022;-89
2021/03/30 05:16:36;;;;;;;7.78;3.03;;;6.90;95.60;;;;;;5015085;28;20030;-88
2021/03/30 05:19:02;;;;;;;15.25;3.13;;;6.50;95.50;;;;;;5015141;28;20029;-89
2021/03/30 05:21:28;;;;;;;8.70;2.72;;;6.40;96.30;;;;;;5015132;28;20061;-89
2021/03/30 05:23:53;;;;;;;4.25;2.70;;;6.90;96.40;;;;;;5014964;28;20026;-88
2021/03/30 05:26:19;;;;;;;7.50;3.00;;;7.00;96.50;;;;;;5014812;28;20042;-89
2021/03/30 05:28:45;;;;;;;7.22;2.65;;;7.10;95.40;;;;;;5014952;28;20022;-89
2021/03/30 05:31:11;;;;;;;12.65;3.00;;;7.00;95.60;;;;;;5014716;28;20053;-89
2021/03/30 05:33:36;;;;;;;7.88;2.83;;;7.30;96.00;;;;;;5014855;28;20025;-88
2021/03/30 05:36:02;;;;;;;7.88;2.88;;;7.40;95.00;;;;;;5014683;28;20021;-89
2021/03/30 05:38:28;;;;;;;5.65;2.63;;;7.60;95.40;;;;;;5014650;28;20026;-89
2021/03/30 05:40:55;;;;;;;4.57;2.58;;;7.70;95.00;;;;;;5014605;28;20029;-89
2021/03/30 05:43:21;;;;;;;4.60;2.67;;;7.60;95.00;;;;;;5014539;28;20022;-89
2021/03/30 05:45:47;;;;;;;5.70;2.55;;;7.60;95.30;;;;;;5015752;28;20022;-89
2021/03/30 05:48:15;;;;;;;7.13;2.38;;;7.70;95.20;;;;;;5014445;28;20477;-89
2021/03/30 05:50:41;;;;;;;5.43;2.60;;;7.90;95.20;;;;;;5014643;28;20388;-89
2021/03/30 05:53:14;;;;;;;6.40;3.13;;;7.70;94.80;;;;;;5014596;28;20430;-89
2021/03/30 05:55:46;;;;;;;6.35;2.83;;;7.60;95.10;;;;;;5014706;28;20037;-89
2021/03/30 05:58:14;;;;;;;8.20;2.90;;;7.50;95.20;;;;;;5015145;28;20029;-89
2021/03/30 06:00:43;;;;;;;4.90;2.40;;;7.40;95.40;;;;;;5015544;28;20029;-88
2021/03/30 06:03:12;;;;;;;3.70;2.50;;;7.70;95.30;;;;;;5016015;28;20049;-89
2021/03/30 06:05:39;;;;;;;5.38;2.50;;;7.70;95.20;;;;;;5014372;28;20037;-89
2021/03/30 06:08:05;;;;;;;5.70;2.85;;;7.80;95.10;;;;;;5015513;28;20022;-89
2021/03/30 06:10:33;;;;;;;4.95;2.63;;;7.80;95.10;;;;;;5014260;28;20053;-86
2021/03/30 06:13:00;;;;;;;8.02;2.78;;;7.90;95.00;;;;;;5013845;28;20477;-86
2021/03/30 06:15:34;;;;;;;6.68;3.00;;;7.90;95.20;;;;;;5014202;28;20112;-86
2021/03/30 06:18:15;;;;;;;5.97;2.28;;;7.90;94.90;;;;;;5013798;28;20052;-86
2021/03/30 06:20:41;;;;;;;8.10;2.63;;;8.00;95.10;;;;;;5013829;28;20117;-86
2021/03/30 06:23:08;;;;;;;8.15;2.72;;;8.00;94.90;;;;;;5013659;28;20061;-87
2021/03/30 06:25:52;;;;;;;7.32;2.90;;;8.10;95.10;;;;;;5013323;28;20054;-88
2021/03/30 06:28:27;;;;;;;6.28;2.70;;;8.10;94.80;;;;;;5013524;28;20026;-86
2021/03/30 06:31:01;;;;;;;4.95;2.70;;;8.30;94.80;;;;;;5013616;28;20030;-86
2021/03/30 06:33:27;;;;;;;5.20;2.93;;;8.30;94.80;;;;;;5013606;28;20032;-87
2021/03/30 06:36:15;;;;;;;6.22;2.70;;;8.30;94.80;;;;;;5013509;28;20478;-86
2021/03/30 06:38:48;;;;;;;6.88;2.90;;;8.30;94.60;;;;;;5013661;28;20144;-87
2021/03/30 06:41:34;;;;;;;6.88;3.63;;;8.20;95.00;;;;;;5014558;28;20481;-87
2021/03/30 06:44:25;;;;;;;6.45;2.75;;;8.20;95.40;;;;;;5013294;28;20054;-86
2021/03/30 06:46:57;;;;;;;5.70;2.75;;;8.50;95.10;;;;;;5014964;28;20486;-86
2021/03/30 06:49:24;;;;;;;8.20;2.90;;;8.50;94.80;;;;;;5013307;28;20072;-87
2021/03/30 06:51:51;;;;;;;10.40;3.30;;;8.40;95.20;;;;;;5014517;28;20474;-86
2021/03/30 06:54:17;;;;;;;5.45;2.65;;;8.50;95.50;;;;;;5014476;28;20084;-86
2021/03/30 06:56:53;;;;;;;8.32;2.60;;;8.50;95.50;;;;;;5013059;28;20042;-87
2021/03/30 06:59:20;;;;;;;9.43;3.10;;;8.60;95.50;;;;;;5013066;28;20053;-87
2021/03/30 07:01:51;;;;;;;9.60;2.75;;;8.70;95.50;;;;;;5013075;28;20552;-87
2021/03/30 07:04:18;;;;;;;6.00;2.55;;;8.70;95.60;;;;;;5013024;28;20030;-87
2021/03/30 07:06:52;;;;;;;10.07;2.63;;;8.80;95.30;;;;;;5012901;28;20033;-86
2021/03/30 07:09:20;;;;;;;6.05;3.00;;;8.80;95.40;;;;;;5012971;28;20116;-87
2021/03/30 07:11:46;;;;;;;17.75;2.78;;;8.90;95.60;;;;;;5014111;28;20406;-86
2021/03/30 07:14:12;;;;;;;6.07;2.85;;;8.90;95.60;;;;;;5012784;28;20367;-87
2021/03/30 07:16:44;;;;;;;4.53;2.85;;;9.10;95.60;;;;;;5012714;28;20370;-87
2021/03/30 07:19:12;;;;;;;7.93;3.03;;;9.30;95.30;;;;;;5012862;28;20053;-87
2021/03/30 07:21:53;;;;;;;5.50;2.67;;;9.70;95.00;;;;;;5012798;28;20079;-87
2021/03/30 07:24:23;;;;;;;8.85;2.83;;;9.90;94.70;;;;;;5012675;28;20022;-87
2021/03/30 07:27:01;;;;;;;8.05;2.70;;;10.10;94.50;;;;;;5012595;28;20030;-87
2021/03/30 07:30:08;;;;;;;7.72;3.10;;;10.30;94.20;;;;;;5012620;28;20026;-87
2021/03/30 07:33:21;;;;;;;8.88;3.10;;;10.40;94.50;;;;;;4936759;29;20055;-87
2021/03/30 07:36:52;;;;;;;;;;;;;;;;;;;;;
2021/03/30 08:10:23;;;;;;;4.63;2.47;;;12.60;92.00;;;;;;5013432;28;20025;-88
2021/03/30 08:13:58;;;;;;;;;;;;;;;;;;;;;
2021/03/30 08:26:25;;;;;;;7.38;2.47;;;13.70;86.50;;;;;;4952885;28;20053;-88
2021/03/30 08:28:59;;;;;;;9.45;2.92;;;13.90;85.20;;;;;;4992575;28;20038;-88
2021/03/30 08:31:28;;;;;;;7.88;2.65;;;14.20;85.70;;;;;;4992602;28;20105;-88
2021/03/30 08:34:00;;;;;;;11.02;3.00;;;14.40;84.00;;;;;;4994134;28;20034;-87
2021/03/30 08:36:32;;;;;;;5.70;2.42;;;14.60;82.80;;;;;;4992416;28;20504;-88
2021/03/30 08:39:09;;;;;;;10.70;3.03;;;14.80;82.20;;;;;;4992363;28;20046;-88
2021/03/30 08:42:35;;;;;;;;;;;;;;;;;;;;;
2021/03/30 09:15:27;;;;;;;10.43;3.75;;;17.60;65.20;;;;;;4957842;28;20515;-89
2021/03/30 09:17:57;;;;;;;8.10;3.83;;;17.90;64.40;;;;;;5019545;28;20025;-88
2021/03/30 09:20:26;;;;;;;8.95;3.42;;;18.00;62.60;;;;;;5018374;28;20028;-88
2021/03/30 09:22:54;;;;;;;7.90;3.17;;;18.10;62.60;;;;;;5018765;28;20449;-89
2021/03/30 09:28:22;;;;;;;12.43;3.45;;;18.40;60.10;;;;;;5022668;28;20022;-89
2021/03/30 09:30:48;;;;;;;17.77;3.97;;;18.60;60.30;;;;;;5018050;28;20022;-89
2021/03/30 09:33:15;;;;;;;8.30;2.83;;;18.60;59.40;;;;;;5017940;28;20469;-88
2021/03/30 09:35:41;;;;;;;15.48;3.33;;;18.70;60.10;;;;;;5018162;28;20029;-89
2021/03/30 09:38:08;;;;;;;10.00;2.88;;;18.70;60.10;;;;;;5018212;28;20136;-89
2021/03/30 09:40:42;;;;;;;12.90;3.22;;;19.00;59.50;;;;;;5017693;28;20032;-89
2021/03/30 09:43:14;;;;;;;15.50;2.63;;;19.10;58.60;;;;;;5018326;28;20036;-89
2021/03/30 09:45:41;;;;;;;10.65;3.00;;;19.30;59.00;;;;;;5018538;28;20087;-89
2021/03/30 09:48:15;;;;;;;8.93;2.40;;;19.60;59.10;;;;;;5017931;28;20064;-88
2021/03/30 09:50:48;;;;;;;12.23;2.95;;;19.40;58.20;;;;;;5035297;28;20030;-89
2021/03/30 09:53:14;;;;;;;12.95;2.40;;;19.50;56.40;;;;;;5017605;28;20170;-88
2021/03/30 09:55:43;;;;;;;10.00;2.80;;;19.70;55.30;;;;;;5017164;28;20021;-89
2021/03/30 09:58:19;;;;;;;12.35;2.67;;;19.90;55.00;;;;;;5017671;28;20037;-89
2021/03/30 10:00:50;;;;;;;8.77;2.83;;;20.00;54.40;;;;;;5017515;28;20087;-89
2021/03/30 10:03:17;;;;;;;11.35;2.80;;;20.00;54.30;;;;;;5017201;28;20037;-88
2021/03/30 10:05:44;;;;;;;8.95;2.50;;;20.40;54.00;;;;;;5035144;28;20488;-89
2021/03/30 10:08:22;;;;;;;19.33;3.45;;;20.60;52.30;;;;;;5034932;28;20018;-89
2021/03/30 10:10:56;;;;;;;12.48;3.00;;;20.50;50.70;;;;;;5036029;28;20099;-89
2021/03/30 10:13:28;;;;;;;6.25;2.83;;;20.60;51.70;;;;;;5035263;28;20481;-90
2021/03/30 10:16:02;;;;;;;13.85;3.10;;;20.90;51.90;;;;;;5017049;28;20025;-89
2021/03/30 10:18:29;;;;;;;8.20;2.75;;;20.90;50.90;;;;;;5012017;28;20457;-87
2021/03/30 10:20:58;;;;;;;7.82;2.42;;;21.10;51.60;;;;;;5017017;28;20040;-89
2021/03/30 10:23:32;;;;;;;8.18;3.00;;;21.20;50.50;;;;;;5017819;28;20032;-89
2021/03/30 10:26:08;;;;;;;13.70;2.75;;;21.30;49.80;;;;;;5016970;28;20045;-90
2021/03/30 10:28:34;;;;;;;12.27;2.88;;;21.50;49.40;;;;;;5018047;28;20137;-90
2021/03/30 10:31:05;;;;;;;6.38;2.60;;;21.50;49.00;;;;;;5022684;28;20048;-90
2021/03/30 10:33:38;;;;;;;10.73;2.58;;;21.70;49.90;;;;;;5023685;28;20116;-90
2021/03/30 10:36:08;;;;;;;7.88;2.42;;;21.80;49.80;;;;;;5018361;28;20037;-89
2021/03/30 10:38:34;;;;;;;3.35;2.03;;;22.30;49.50;;;;;;5002358;28;20041;-90
2021/03/30 10:41:15;;;;;;;9.43;2.20;;;22.30;47.40;;;;;;5034452;28;20029;-90
2021/03/30 10:43:41;;;;;;;5.45;1.95;;;22.40;47.20;;;;;;5016696;28;20026;-90
2021/03/30 10:46:20;;;;;;;5.43;2.20;;;22.70;47.50;;;;;;5017307;28;20030;-89
2021/03/30 10:49:04;;;;;;;4.50;2.15;;;22.80;45.80;;;;;;5016572;28;20025;-89
2021/03/30 10:51:32;;;;;;;6.57;2.13;;;22.80;45.10;;;;;;5000404;28;20025;-89
2021/03/30 10:53:59;;;;;;;5.05;2.47;;;23.20;45.90;;;;;;5016477;28;20037;-90
2021/03/30 10:56:26;;;;;;;5.53;2.28;;;23.50;46.10;;;;;;5016491;28;20048;-90
2021/03/30 10:58:51;;;;;;;3.83;1.80;;;23.30;45.20;;;;;;5017036;28;20022;-90
2021/03/30 11:01:17;;;;;;;8.48;1.80;;;23.60;44.70;;;;;;5016759;28;20036;-90
2021/03/30 11:03:43;;;;;;;8.85;1.90;;;24.00;45.30;;;;;;5016538;28;20035;-90
2021/03/30 11:06:11;;;;;;;4.70;1.65;;;24.00;42.90;;;;;;5016332;28;20388;-89
2021/03/30 11:08:37;;;;;;;4.70;1.60;;;23.80;43.20;;;;;;5016477;28;20043;-90
2021/03/30 11:11:03;;;;;;;4.13;2.03;;;23.90;42.60;;;;;;5034194;28;20021;-90
2021/03/30 11:13:29;;;;;;;7.97;1.88;;;24.20;41.70;;;;;;5034171;28;20025;-92
2021/03/30 11:15:56;;;;;;;4.95;1.50;;;24.50;40.30;;;;;;5001186;28;20026;-90
2021/03/30 11:18:21;;;;;;;5.47;2.00;;;24.70;38.70;;;;;;5017889;28;20032;-90
2021/03/30 11:20:47;;;;;;;5.78;1.73;;;24.90;40.30;;;;;;5016969;28;20385;-90
2021/03/30 11:23:15;;;;;;;11.25;1.85;;;25.20;40.20;;;;;;5016775;28;20199;-91
2021/03/30 11:25:41;;;;;;;10.27;2.03;;;25.00;39.60;;;;;;5017223;28;20095;-91
2021/03/30 11:28:12;;;;;;;11.50;1.75;;;25.50;40.20;;;;;;5018347;28;20107;-91
2021/03/30 11:30:52;;;;;;;7.82;1.95;;;25.80;41.10;;;;;;5017490;28;20072;-90
2021/03/30 11:33:24;;;;;;;5.97;1.67;;;25.40;39.30;;;;;;5018240;28;20087;-91
2021/03/30 11:35:57;;;;;;;10.68;1.67;;;25.40;39.00;;;;;;5018387;28;20518;-91
2021/03/30 11:38:23;;;;;;;3.53;1.63;;;25.30;40.20;;;;;;5018511;28;20410;-90
2021/03/30 11:40:49;;;;;;;5.47;1.85;;;25.50;39.70;;;;;;5017402;28;20106;-90
2021/03/30 11:43:16;;;;;;;5.97;1.55;;;25.70;38.40;;;;;;5017372;28;20388;-91
2021/03/30 11:45:42;;;;;;;6.97;1.83;;;26.00;37.70;;;;;;5018060;28;20021;-91
2021/03/30 11:48:08;;;;;;;10.45;2.00;;;26.40;37.40;;;;;;5017642;28;20022;-91
2021/03/30 11:50:46;;;;;;;2.65;1.30;;;26.80;37.50;;;;;;5018097;28;20028;-91
2021/03/30 11:53:29;;;;;;;10.93;1.67;;;27.20;33.60;;;;;;5017878;28;20041;-91
2021/03/30 11:55:57;;;;;;;4.00;1.92;;;26.50;35.20;;;;;;5018385;28;20369;-91
2021/03/30 11:58:23;;;;;;;8.65;1.70;;;26.30;35.40;;;;;;5017661;28;20076;-88
2021/03/30 12:00:48;;;;;;;4.35;1.60;;;26.60;35.70;;;;;;5016936;28;20025;-89
2021/03/30 12:03:14;;;;;;;3.22;1.52;;;26.50;32.10;;;;;;5034891;28;20025;-89
2021/03/30 12:05:40;;;;;;;3.13;1.52;;;26.70;35.50;;;;;;5017896;28;20029;-89
2021/03/30 12:08:06;;;;;;;6.93;1.77;;;26.40;35.00;;;;;;5034577;28;20025;-90
2021/03/30 12:10:32;;;;;;;3.55;1.50;;;26.80;34.80;;;;;;5016775;28;20088;-89
2021/03/30 12:12:57;;;;;;;8.82;1.25;;;27.00;33.40;;;;;;5016869;28;20550;-88
2021/03/30 12:15:24;;;;;;;10.13;1.52;;;27.40;31.30;;;;;;5016900;28;20032;-88
2021/03/30 12:17:50;;;;;;;6.30;1.70;;;27.20;32.40;;;;;;5016991;28;20025;-88
2021/03/30 12:20:16;;;;;;;4.68;1.55;;;27.50;34.30;;;;;;5019611;28;20624;-88
2021/03/30 12:22:42;;;;;;;2.92;1.50;;;27.60;33.70;;;;;;5020384;28;20416;-88
2021/03/30 12:25:09;;;;;;;2.40;1.20;;;27.90;33.10;;;;;;5020373;28;20073;-88
2021/03/30 12:27:35;;;;;;;3.72;1.52;;;28.00;33.00;;;;;;5020353;28;20099;-88
2021/03/30 12:30:00;;;;;;;4.68;1.20;;;27.70;32.40;;;;;;5020400;28;20026;-88
2021/03/30 12:32:26;;;;;;;6.70;1.60;;;28.10;32.30;;;;;;5020259;28;20021;-88
2021/03/30 12:34:52;;;;;;;4.28;1.40;;;29.20;32.20;;;;;;5019857;28;20025;-88
2021/03/30 12:37:18;;;;;;;6.25;1.20;;;29.90;31.90;;;;;;5020018;28;20055;-88
2021/03/30 12:39:44;;;;;;;3.22;1.30;;;29.50;32.30;;;;;;5018985;28;20440;-85
2021/03/30 12:42:10;;;;;;;4.18;1.23;;;29.90;31.40;;;;;;5019689;28;20030;-87
2021/03/30 12:44:36;;;;;;;6.88;1.38;;;30.10;30.90;;;;;;5020228;28;20403;-87
2021/03/30 12:47:02;;;;;;;6.20;1.23;;;30.40;30.30;;;;;;5019593;28;20090;-88
2021/03/30 12:49:28;;;;;;;3.75;1.33;;;30.40;30.50;;;;;;5019907;28;20022;-85
2021/03/30 12:51:54;;;;;;;4.10;1.23;;;30.50;31.00;;;;;;5037392;28;20465;-89
2021/03/30 12:54:21;;;;;;;6.82;1.30;;;30.30;29.80;;;;;;5020058;28;20108;-85
2021/03/30 12:56:46;;;;;;;3.58;1.20;;;30.40;30.20;;;;;;5019804;28;20405;-87
2021/03/30 12:59:13;;;;;;;4.45;1.52;;;30.30;29.90;;;;;;5020089;28;20025;-86
2021/03/30 13:01:38;;;;;;;8.10;1.77;;;30.40;29.30;;;;;;5019891;28;20133;-85
2021/03/30 13:04:05;;;;;;;7.10;1.30;;;30.40;29.60;;;;;;5020169;28;20048;-85
2021/03/30 13:06:30;;;;;;;5.65;1.50;;;31.20;29.90;;;;;;5019595;28;20385;-86
2021/03/30 13:08:56;;;;;;;5.28;1.42;;;31.70;28.80;;;;;;5037478;28;20026;-87
2021/03/30 13:11:24;;;;;;;9.55;1.38;;;31.10;28.40;;;;;;5037886;28;20033;-88
2021/03/30 13:13:50;;;;;;;2.50;1.30;;;30.90;29.20;;;;;;5020179;28;20022;-90
2021/03/30 13:16:16;;;;;;;4.55;1.40;;;29.80;29.90;;;;;;5019879;28;20040;-91
2021/03/30 13:18:41;;;;;;;11.68;1.60;;;29.90;29.50;;;;;;5037904;28;20554;-90
2021/03/30 13:21:10;;;;;;;5.43;1.38;;;29.70;29.40;;;;;;5019494;28;20017;-89
2021/03/30 13:23:36;;;;;;;4.80;1.38;;;29.50;28.60;;;;;;5019910;28;20057;-89
2021/03/30 13:26:02;;;;;;;5.57;1.50;;;28.70;28.80;;;;;;5019273;28;20046;-91
2021/03/30 13:28:28;;;;;;;3.80;1.48;;;28.60;29.40;;;;;;5019747;28;20026;-90
2021/03/30 13:30:54;;;;;;;2.53;1.38;;;28.40;29.30;;;;;;5019083;28;20029;-89
2021/03/30 13:33:20;;;;;;;5.20;1.65;;;28.20;30.00;;;;;;5020326;28;20136;-92
2021/03/30 13:35:45;;;;;;;7.38;1.50;;;28.20;30.80;;;;;;5019887;28;20052;-92
2021/03/30 13:38:11;;;;;;;7.18;2.30;;;27.60;29.90;;;;;;5020075;28;20045;-91
2021/03/30 13:40:38;;;;;;;5.95;1.40;;;27.90;29.60;;;;;;5020114;28;20021;-91
2021/03/30 13:43:04;;;;;;;3.90;1.77;;;28.80;29.40;;;;;;5019951;28;20457;-92
2021/03/30 13:45:34;;;;;;;5.55;1.50;;;29.30;28.90;;;;;;5019747;28;20025;-91
2021/03/30 13:48:00;;;;;;;4.95;1.80;;;29.60;28.20;;;;;;5003295;28;20476;-88
2021/03/30 13:50:34;;;;;;;7.13;1.60;;;29.40;29.20;;;;;;5018622;28;20026;-89
2021/03/30 13:53:00;;;;;;;3.55;1.65;;;29.40;30.60;;;;;;5035490;28;20024;-89
2021/03/30 13:55:25;;;;;;;4.90;1.90;;;30.00;29.70;;;;;;5017559;28;20366;-89
2021/03/30 13:57:51;;;;;;;7.65;2.28;;;30.30;30.70;;;;;;5017577;28;20143;-89
2021/03/30 14:00:18;;;;;;;7.72;1.88;;;30.60;30.40;;;;;;5017738;28;20021;-89
2021/03/30 14:02:44;;;;;;;5.63;2.08;;;30.30;30.80;;;;;;5017627;28;20028;-89
2021/03/30 14:05:10;;;;;;;8.25;2.00;;;30.60;30.70;;;;;;5017756;28;20080;-89
2021/03/30 14:07:35;;;;;;;5.00;2.22;;;30.30;30.80;;;;;;5035466;28;20025;-89
2021/03/30 14:10:02;;;;;;;4.75;1.85;;;30.50;30.10;;;;;;5017360;28;20032;-89
2021/03/30 14:13:13;;;;;;;7.18;2.05;;;30.40;29.60;;;;;;5018209;28;20033;-88
2021/03/30 14:15:44;;;;;;;6.55;1.90;;;30.00;30.80;;;;;;5027516;28;20033;-89
2021/03/30 14:21:03;;;;;;;7.65;2.10;;;29.60;30.00;;;;;;5050511;28;20377;-88
2021/03/30 14:23:47;;;;;;;5.72;2.08;;;30.00;30.10;;;;;;5024419;28;20029;-89
2021/03/30 14:26:26;;;;;;;8.85;2.05;;;30.40;29.60;;;;;;5018574;28;20046;-89